Time;durP1;ratioP1;P1;durP2;ratioP2;P2;SDS_P1;SDS_P2;PMS_P1;PMS_P2;Temp;Humidity;BMP_temperature;BMP_pressure;BME280_temperature;BME280_humidity;BME280_pressure;Samples;Min_cycle;Max_cycle;Signal;HPM_P1;HPM_P2
2023/03/07 00:01:22;;;;;;;12.33;4.40;;;;;;;12.24;59.59;99925.56;5066069;28;20104;-69
2023/03/07 00:03:48;;;;;;;;;;;;;;;11.15;62.14;99934.75;5064973;28;20036;-68
2023/03/07 00:06:13;;;;;;;12.97;4.07;;;;;;;11.37;61.73;99941.13;5066754;28;20308;-69
2023/03/07 00:08:38;;;;;;;10.17;4.67;;;;;;;11.74;59.30;99928.75;5064734;28;20088;-68
2023/03/07 00:11:06;;;;;;;9.33;4.50;;;;;;;11.37;59.70;99941.13;5065851;28;20136;-69
2023/03/07 00:13:35;;;;;;;13.73;4.17;;;;;;;10.79;61.36;99937.44;5065508;28;20056;-69
2023/03/07 00:16:06;;;;;;;11.70;5.00;;;;;;;11.63;58.69;99944.75;5065409;28;20099;-69
2023/03/07 00:18:32;;;;;;;17.03;6.27;;;;;;;12.46;56.45;99935.34;5067305;28;20099;-69
2023/03/07 00:21:00;;;;;;;9.97;4.60;;;;;;;11.14;61.49;99941.75;5063235;28;20124;-69
2023/03/07 00:23:26;;;;;;;11.07;4.43;;;;;;;11.81;58.63;99938.13;5051557;28;20485;-68
2023/03/07 00:25:59;;;;;;;13.60;4.50;;;;;;;12.33;56.56;99927.84;5069601;28;20061;-68
2023/03/07 00:28:25;;;;;;;10.73;4.60;;;;;;;11.27;59.91;99933.56;5070147;28;20039;-69
2023/03/07 00:30:50;;;;;;;12.57;4.50;;;;;;;10.82;60.88;99942.56;5062179;28;20024;-69
2023/03/07 00:33:16;;;;;;;10.57;4.33;;;;;;;11.50;59.44;99935.56;5071017;28;20060;-69
2023/03/07 00:35:41;;;;;;;13.27;5.40;;;;;;;11.97;58.30;99935.13;5066274;28;20055;-69
2023/03/07 00:38:06;;;;;;;12.13;5.17;;;;;;;11.44;58.38;99930.47;5069454;28;20032;-68
2023/03/07 00:40:32;;;;;;;13.07;5.43;;;;;;;10.75;61.09;99933.19;5068753;28;20028;-69
2023/03/07 00:42:57;;;;;;;18.60;5.20;;;;;;;11.07;60.09;99931.47;5068657;28;20033;-68
2023/03/07 00:45:22;;;;;;;11.37;4.73;;;;;;;11.07;60.08;99929.72;5069697;28;20024;-68
2023/03/07 00:47:48;;;;;;;9.20;4.80;;;;;;;11.05;59.50;99925.44;5068767;28;20074;-69
2023/03/07 00:50:13;;;;;;;9.30;4.67;;;;;;;11.25;60.36;99930.13;5066919;28;20411;-71
2023/03/07 00:52:38;;;;;;;14.57;4.43;;;;;;;11.59;57.31;99924.81;5069359;28;20408;-69
2023/03/07 00:55:04;;;;;;;18.50;6.07;;;;;;;11.42;59.40;99919.22;5068776;28;20484;-69
2023/03/07 00:57:30;;;;;;;14.70;4.63;;;;;;;12.07;57.06;99914.72;5069553;28;20036;-71
2023/03/07 00:59:55;;;;;;;15.17;5.50;;;;;;;11.85;57.41;99912.72;5068604;28;20028;-69
2023/03/07 01:02:20;;;;;;;11.93;6.20;;;;;;;11.79;56.16;99905.06;5067516;28;20028;-70
2023/03/07 01:04:46;;;;;;;13.20;4.80;;;;;;;11.61;57.20;99907.31;5067732;28;20086;-69
2023/03/07 01:07:11;;;;;;;15.47;4.90;;;;;;;11.42;57.24;99906.13;5070451;28;20033;-69
2023/03/07 01:09:36;;;;;;;22.37;6.00;;;;;;;12.31;55.26;99903.47;5070621;28;20081;-70
2023/03/07 01:12:05;;;;;;;11.80;4.70;;;;;;;10.80;60.08;99905.16;5067558;28;20392;-69
2023/03/07 01:14:31;;;;;;;19.50;5.00;;;;;;;11.65;58.03;99898.47;5067767;28;20028;-69
2023/03/07 01:16:57;;;;;;;11.27;4.77;;;;;;;11.41;57.50;99907.88;5070236;28;20111;-69
2023/03/07 01:19:23;;;;;;;9.07;5.43;;;;;;;11.97;55.95;99896.69;5066557;28;20178;-70
2023/03/07 01:21:48;;;;;;;14.87;5.27;;;;;;;12.24;54.45;99896.72;5067013;28;20035;-69
2023/03/07 01:24:14;;;;;;;12.87;5.43;;;;;;;12.14;54.40;99890.06;5069976;28;20039;-69
2023/03/07 01:26:40;;;;;;;19.77;5.17;;;;;;;11.78;55.28;99892.88;5067979;28;20479;-69
2023/03/07 01:29:06;;;;;;;15.80;5.10;;;;;;;11.27;56.72;99897.81;5067592;28;20028;-69
2023/03/07 01:31:32;;;;;;;11.13;5.20;;;;;;;11.11;58.29;99896.50;5063952;28;20383;-71
2023/03/07 01:33:58;;;;;;;13.37;5.27;;;;;;;12.60;54.56;99883.31;5067216;28;20479;-70
2023/03/07 01:36:31;;;;;;;14.47;5.50;;;;;;;11.89;56.04;99885.53;5068894;28;20521;-69
2023/03/07 01:39:05;;;;;;;13.03;5.30;;;;;;;12.09;54.30;99882.34;5068286;28;20036;-69
2023/03/07 01:41:31;;;;;;;13.93;5.70;;;;;;;11.54;56.53;99895.31;5068074;28;20027;-70
2023/03/07 01:43:58;;;;;;;9.60;4.53;;;;;;;11.33;57.19;99887.19;5061903;28;20392;-69
2023/03/07 01:46:32;;;;;;;13.50;5.67;;;;;;;11.81;56.42;99882.28;5068636;28;20056;-70
2023/03/07 01:49:13;;;;;;;18.60;4.73;;;;;;;11.31;56.78;99872.41;5069009;28;20036;-69
2023/03/07 01:51:42;;;;;;;15.00;5.47;;;;;;;11.26;56.72;99875.16;5066569;28;20711;-70
2023/03/07 01:54:10;;;;;;;13.00;5.00;;;;;;;12.50;54.22;99866.19;5068229;28;20040;-69
2023/03/07 01:56:37;;;;;;;11.47;4.07;;;;;;;12.48;53.83;99873.25;5069008;28;20028;-70
2023/03/07 01:59:03;;;;;;;12.63;4.30;;;;;;;11.54;56.32;99864.75;5067086;28;20025;-69
2023/03/07 02:01:32;;;;;;;10.57;3.10;;;;;;;11.24;57.02;99876.09;5067559;28;20048;-70
2023/03/07 02:04:03;;;;;;;16.27;2.57;;;;;;;11.83;54.74;99870.03;5064638;28;20117;-70
2023/03/07 02:06:33;;;;;;;11.37;2.13;;;;;;;11.80;55.18;99865.75;5068462;28;20028;-69
2023/03/07 02:08:59;;;;;;;8.83;2.37;;;;;;;11.12;58.85;99864.22;5067728;28;20028;-70
2023/03/07 02:11:25;;;;;;;8.03;2.10;;;;;;;11.68;55.89;99856.50;5067921;28;20153;-70
2023/03/07 02:13:51;;;;;;;13.30;2.07;;;;;;;12.29;54.13;99863.34;5066395;28;20222;-70
2023/03/07 02:16:16;;;;;;;6.70;3.20;;;;;;;10.28;60.63;99868.94;5067031;28;20490;-69
2023/03/07 02:18:48;;;;;;;14.57;2.33;;;;;;;10.61;60.37;99855.97;5067637;28;20057;-70
2023/03/07 02:21:47;;;;;;;7.13;1.77;;;;;;;10.81;60.04;99862.44;5066866;28;20036;-69
2023/03/07 02:24:39;;;;;;;11.73;2.20;;;;;;;11.50;58.52;99851.81;5066005;28;20123;-69
2023/03/07 02:27:05;;;;;;;6.93;2.27;;;;;;;10.97;59.38;99845.44;5066291;28;20028;-70
2023/03/07 02:29:30;;;;;;;9.77;2.70;;;;;;;10.72;60.79;99847.84;5066284;28;20459;-69
2023/03/07 02:31:55;;;;;;;13.73;2.33;;;;;;;11.57;57.49;99840.25;5067354;28;20085;-70
2023/03/07 02:34:32;;;;;;;8.60;2.70;;;;;;;11.45;58.32;99849.31;5068687;28;20054;-70
2023/03/07 02:37:20;;;;;;;13.33;2.80;;;;;;;11.29;59.09;99837.59;5067772;28;20546;-69
2023/03/07 02:39:47;;;;;;;11.03;2.33;;;;;;;11.64;56.85;99838.31;5066614;28;20093;-69
2023/03/07 02:42:20;;;;;;;15.73;2.60;;;;;;;11.14;59.41;99841.50;5065958;28;20024;-70
2023/03/07 02:44:53;;;;;;;11.63;2.60;;;;;;;11.30;58.08;99831.47;5065794;28;20042;-71
2023/03/07 02:47:19;;;;;;;12.27;2.20;;;;;;;11.64;58.03;99826.06;5066090;28;20246;-70
2023/03/07 02:49:44;;;;;;;16.43;2.73;;;;;;;11.52;57.56;99829.06;5067791;28;20028;-70
2023/03/07 02:52:09;;;;;;;10.37;2.10;;;;;;;12.39;55.26;99821.97;5064271;28;20033;-70
2023/03/07 02:54:35;;;;;;;10.87;2.40;;;;;;;12.70;54.48;99824.41;5066461;28;20032;-70
2023/03/07 02:57:00;;;;;;;11.17;2.47;;;;;;;12.10;55.99;99828.19;5065297;28;20029;-70
2023/03/07 02:59:25;;;;;;;7.87;1.87;;;;;;;11.64;57.15;99822.63;5068467;28;20070;-70
2023/03/07 03:01:51;;;;;;;10.63;2.13;;;;;;;11.65;57.52;99819.94;5066382;28;20070;-70
2023/03/07 03:04:16;;;;;;;18.80;2.60;;;;;;;11.85;57.26;99823.69;5065151;28;20086;-70
2023/03/07 03:06:41;;;;;;;14.63;2.93;;;;;;;12.03;56.22;99820.53;5067420;28;20025;-70
2023/03/07 03:09:07;;;;;;;17.33;3.00;;;;;;;13.12;53.12;99817.69;5065688;28;20060;-70
2023/03/07 03:11:32;;;;;;;11.23;2.20;;;;;;;12.38;54.72;99809.81;5065726;28;20044;-70
2023/03/07 03:13:58;;;;;;;12.63;2.90;;;;;;;12.51;54.89;99810.22;5066273;28;20563;-70
2023/03/07 03:16:23;;;;;;;8.13;2.87;;;;;;;12.64;53.28;99819.41;5066440;28;20028;-70
2023/03/07 03:18:48;;;;;;;14.67;2.83;;;;;;;12.79;54.16;99811.88;5066933;28;20067;-70
2023/03/07 03:21:14;;;;;;;18.53;2.60;;;;;;;12.55;55.41;99814.47;5066738;28;20027;-70
2023/03/07 03:23:40;;;;;;;11.67;2.80;;;;;;;12.01;55.82;99809.25;5065407;28;20036;-70
2023/03/07 03:26:08;;;;;;;13.33;3.20;;;;;;;11.94;54.55;99815.59;5045493;28;20048;-69
2023/03/07 03:28:34;;;;;;;13.33;3.10;;;;;;;12.43;54.17;99807.88;5064249;28;20032;-70
2023/03/07 03:31:02;;;;;;;15.80;3.57;;;;;;;12.94;53.41;99798.25;5066066;28;20063;-70
2023/03/07 03:33:28;;;;;;;12.17;3.43;;;;;;;12.39;54.56;99798.41;5065810;28;20082;-69
2023/03/07 03:35:58;;;;;;;19.47;4.00;;;;;;;12.00;55.44;99802.28;5065564;28;20552;-70
2023/03/07 03:38:25;;;;;;;21.00;4.00;;;;;;;12.28;55.64;99801.41;5067695;28;20028;-70
2023/03/07 03:40:50;;;;;;;16.40;4.27;;;;;;;11.85;56.59;99797.50;5065594;28;20112;-69
2023/03/07 03:43:16;;;;;;;11.77;3.73;;;;;;;12.63;54.93;99788.00;5066964;28;20115;-70
2023/03/07 03:45:42;;;;;;;17.53;5.00;;;;;;;11.55;57.55;99794.94;5045252;28;20036;-69
2023/03/07 03:48:08;;;;;;;13.60;5.03;;;;;;;11.15;59.06;99798.75;5047403;28;20572;-69
2023/03/07 03:50:33;;;;;;;13.37;5.17;;;;;;;11.08;57.80;99786.75;5046152;28;20087;-70
2023/03/07 03:52:59;;;;;;;13.47;5.07;;;;;;;11.67;58.46;99786.72;5055937;28;20032;-70
2023/03/07 03:55:25;;;;;;;13.10;4.93;;;;;;;10.75;58.97;99799.88;5074031;28;20052;-69
2023/03/07 03:57:50;;;;;;;13.03;5.83;;;;;;;10.40;59.23;99793.81;5070145;28;20109;-69
2023/03/07 04:00:18;;;;;;;11.40;5.40;;;;;;;10.71;57.56;99799.09;5071658;28;20028;-69
2023/03/07 04:02:46;;;;;;;14.17;5.53;;;;;;;9.94;59.59;99796.63;5073175;28;20052;-69
2023/03/07 04:05:12;;;;;;;11.70;5.10;;;;;;;10.73;56.63;99792.06;5089852;28;20020;-70
2023/03/07 04:07:37;;;;;;;9.03;4.87;;;;;;;10.06;59.05;99792.03;5070540;28;20492;-70
2023/03/07 04:10:04;;;;;;;8.10;5.33;;;;;;;10.52;58.06;99799.59;5072416;28;20396;-69
2023/03/07 04:12:30;;;;;;;6.90;3.20;;;;;;;9.89;60.01;99808.97;5072105;28;20044;-70
2023/03/07 04:14:56;;;;;;;7.00;2.33;;;;;;;10.27;60.66;99799.31;5071528;28;20028;-69
2023/03/07 04:17:21;;;;;;;9.43;2.43;;;;;;;10.59;59.26;99805.50;5071795;28;20044;-69
2023/03/07 04:19:47;;;;;;;4.93;1.67;;;;;;;10.71;57.96;99798.25;5073788;28;20043;-69
2023/03/07 04:22:12;;;;;;;9.27;2.13;;;;;;;10.44;58.75;99790.22;5071250;28;20024;-70
2023/03/07 04:24:37;;;;;;;10.43;2.67;;;;;;;10.19;59.72;99785.59;5072533;28;20498;-70
2023/03/07 04:27:03;;;;;;;11.00;2.53;;;;;;;10.39;59.14;99787.72;5071220;28;20032;-69
2023/03/07 04:29:30;;;;;;;6.83;3.17;;;;;;;10.58;59.27;99788.13;5073991;28;20457;-69
2023/03/07 04:31:55;;;;;;;7.63;2.57;;;;;;;10.86;56.45;99775.13;5073428;28;20538;-69
2023/03/07 04:34:20;;;;;;;3.90;2.20;;;;;;;9.88;60.90;99786.34;5074401;28;20334;-70
2023/03/07 04:36:46;;;;;;;3.43;2.10;;;;;;;9.89;59.82;99782.84;5070103;28;20086;-70
2023/03/07 04:39:11;;;;;;;6.40;2.00;;;;;;;9.97;60.28;99780.03;5071604;28;20028;-69
2023/03/07 04:41:37;;;;;;;6.00;2.60;;;;;;;9.94;60.92;99780.97;5071575;28;20025;-69
2023/03/07 04:44:02;;;;;;;12.47;2.47;;;;;;;9.68;63.16;99769.41;5071506;28;20032;-70
2023/03/07 04:46:28;;;;;;;6.70;2.70;;;;;;;10.38;60.34;99770.34;5073084;28;20048;-69
2023/03/07 04:48:53;;;;;;;18.27;3.10;;;;;;;11.52;56.51;99761.88;5070842;28;20131;-70
2023/03/07 04:51:19;;;;;;;12.20;3.40;;;;;;;11.79;56.23;99755.84;5073668;28;20072;-69
2023/03/07 04:53:44;;;;;;;5.50;3.00;;;;;;;11.49;56.49;99755.88;5073172;28;20115;-69
2023/03/07 04:56:11;;;;;;;5.17;2.80;;;;;;;11.54;54.90;99741.75;5073067;28;20399;-69
2023/03/07 04:58:37;;;;;;;7.40;2.53;;;;;;;11.81;56.35;99754.00;5072613;28;20043;-69
2023/03/07 05:01:02;;;;;;;7.80;3.03;;;;;;;11.74;54.31;99755.13;5069618;28;20025;-69
2023/03/07 05:03:28;;;;;;;12.53;2.37;;;;;;;11.58;56.16;99755.59;5071758;28;20124;-70
2023/03/07 05:05:54;;;;;;;11.43;2.13;;;;;;;10.61;58.83;99767.13;5068075;28;20055;-69
2023/03/07 05:08:21;;;;;;;8.77;2.80;;;;;;;10.76;58.95;99770.22;5069950;28;20480;-70
2023/03/07 05:10:46;;;;;;;6.43;1.30;;;;;;;10.75;57.55;99773.72;5067243;28;20032;-70
2023/03/07 05:13:12;;;;;;;6.83;1.83;;;;;;;11.51;55.03;99764.53;5070517;28;20428;-70
2023/03/07 05:15:37;;;;;;;8.07;1.20;;;;;;;10.64;58.62;99780.09;5069043;28;20453;-69
2023/03/07 05:18:03;;;;;;;7.83;1.50;;;;;;;10.04;60.09;99775.53;5067189;28;20025;-70
2023/03/07 05:20:28;;;;;;;5.63;1.00;;;;;;;10.02;59.73;99781.63;5068204;28;20032;-69
2023/03/07 05:22:55;;;;;;;6.43;1.20;;;;;;;10.02;61.35;99783.41;5068117;28;20111;-70
2023/03/07 05:25:21;;;;;;;5.47;1.30;;;;;;;10.69;58.53;99775.59;5069965;28;20032;-69
2023/03/07 05:27:47;;;;;;;4.23;0.80;;;;;;;10.53;57.79;99779.53;5068338;28;20103;-70
2023/03/07 05:30:13;;;;;;;4.73;1.00;;;;;;;10.20;58.84;99776.88;5068924;28;20040;-70
2023/03/07 05:32:39;;;;;;;7.73;1.30;;;;;;;10.31;60.85;99780.06;5066515;28;20384;-69
2023/03/07 05:35:06;;;;;;;10.80;0.97;;;;;;;9.33;62.11;99778.88;5069770;28;20038;-70
2023/03/07 05:37:31;;;;;;;5.77;1.50;;;;;;;8.79;63.18;99781.72;5067977;28;20306;-70
2023/03/07 05:39:56;;;;;;;9.83;2.87;;;;;;;9.53;62.03;99780.19;5069361;28;20025;-70
2023/03/07 05:42:22;;;;;;;2.40;1.30;;;;;;;9.07;62.42;99781.19;5069269;28;20028;-69
2023/03/07 05:44:47;;;;;;;4.57;1.43;;;;;;;9.38;60.83;99781.38;5067505;28;20476;-69
2023/03/07 05:47:12;;;;;;;3.27;1.93;;;;;;;9.28;60.60;99790.31;5066705;28;20059;-70
2023/03/07 05:49:38;;;;;;;4.73;1.90;;;;;;;8.27;62.84;99794.78;5068217;28;20052;-70
2023/03/07 05:52:03;;;;;;;3.47;1.00;;;;;;;9.59;60.27;99790.50;5065997;28;20052;-70
2023/03/07 05:54:31;;;;;;;4.40;1.03;;;;;;;8.59;60.41;99800.34;5068099;28;20036;-70
2023/03/07 05:56:57;;;;;;;4.23;0.93;;;;;;;9.60;59.58;99796.56;5069280;28;20028;-70
2023/03/07 05:59:22;;;;;;;6.63;1.00;;;;;;;8.90;61.71;99799.75;5067731;28;20480;-70
2023/03/07 06:01:48;;;;;;;1.87;0.60;;;;;;;7.89;63.59;99806.69;5068612;28;20086;-70
2023/03/07 06:04:13;;;;;;;2.20;0.70;;;;;;;7.85;66.34;99797.19;5068666;28;20033;-70
2023/03/07 06:06:38;;;;;;;3.40;0.70;;;;;;;8.33;64.91;99805.09;5068109;28;20085;-70
2023/03/07 06:09:04;;;;;;;3.27;0.87;;;;;;;8.41;64.97;99806.72;5069546;28;20115;-70
2023/03/07 06:11:31;;;;;;;1.53;0.80;;;;;;;8.07;64.63;99804.69;5069439;28;20043;-71
2023/03/07 06:13:56;;;;;;;3.17;1.10;;;;;;;8.61;62.28;99804.66;5066983;28;20112;-71
2023/03/07 06:16:22;;;;;;;3.27;0.80;;;;;;;8.93;61.15;99805.78;5066333;28;20492;-71
2023/03/07 06:18:47;;;;;;;4.83;1.33;;;;;;;9.07;59.25;99797.69;5066547;28;20036;-70
2023/03/07 06:21:15;;;;;;;6.93;1.10;;;;;;;9.41;59.78;99806.53;5065977;28;20353;-70
2023/03/07 06:23:40;;;;;;;3.40;1.33;;;;;;;8.14;61.52;99804.53;5068086;28;20115;-70
2023/03/07 06:26:07;;;;;;;3.57;0.90;;;;;;;8.66;61.04;99797.59;5068370;28;20181;-70
2023/03/07 06:28:33;;;;;;;6.37;1.20;;;;;;;8.12;61.57;99811.53;5066569;28;20095;-70
2023/03/07 06:30:59;;;;;;;5.23;1.43;;;;;;;8.27;63.58;99813.00;5067913;28;20103;-70
2023/03/07 06:33:24;;;;;;;7.80;1.30;;;;;;;9.17;60.35;99808.78;5067738;28;20103;-70
2023/03/07 06:35:50;;;;;;;1.53;1.07;;;;;;;8.19;61.71;99807.06;5065699;28;20035;-70
2023/03/07 06:38:16;;;;;;;3.63;1.60;;;;;;;7.70;64.73;99807.84;5067230;28;20117;-70
2023/03/07 06:40:42;;;;;;;4.17;1.60;;;;;;;7.48;66.84;99800.34;5066839;28;20035;-70
2023/03/07 06:43:08;;;;;;;2.60;1.50;;;;;;;8.30;62.37;99810.34;5067719;28;20025;-70
2023/03/07 06:45:34;;;;;;;7.73;1.73;;;;;;;9.13;61.54;99805.38;5066401;28;20032;-70
2023/03/07 06:47:59;;;;;;;2.33;1.23;;;;;;;8.23;62.25;99806.13;5078306;28;20424;-70
2023/03/07 06:50:25;;;;;;;2.43;1.13;;;;;;;8.10;63.51;99807.22;5068105;28;20468;-69
2023/03/07 06:52:50;;;;;;;3.13;1.27;;;;;;;7.71;66.08;99809.56;5065534;28;20102;-69
2023/03/07 06:55:18;;;;;;;2.83;1.03;;;;;;;9.04;62.43;99802.09;5066748;28;20055;-70
2023/03/07 06:57:43;;;;;;;5.43;1.30;;;;;;;8.58;62.31;99809.06;5067524;28;20028;-69
2023/03/07 07:00:10;;;;;;;3.37;0.90;;;;;;;8.40;60.89;99810.19;5065547;28;20482;-70
2023/03/07 07:02:35;;;;;;;3.80;1.03;;;;;;;7.95;64.09;99810.91;5066798;28;20031;-70
2023/03/07 07:05:01;;;;;;;4.90;1.13;;;;;;;9.19;61.05;99801.81;5066289;28;20412;-70
2023/03/07 07:07:27;;;;;;;5.07;1.40;;;;;;;9.70;58.36;99797.19;5067258;28;20029;-69
2023/03/07 07:09:53;;;;;;;5.47;1.30;;;;;;;10.74;54.88;99792.91;5048969;28;20025;-70
2023/03/07 07:12:18;;;;;;;5.87;1.77;;;;;;;9.70;56.63;99805.03;5061854;28;20115;-70
2023/03/07 07:14:43;;;;;;;10.13;3.10;;;;;;;10.06;55.16;99805.09;5060532;28;20054;-70
2023/03/07 07:17:09;;;;;;;9.50;2.87;;;;;;;9.70;56.82;99805.03;5062822;28;20032;-69
2023/03/07 07:19:35;;;;;;;3.27;1.60;;;;;;;10.30;54.74;99803.59;5066569;28;20028;-70
2023/03/07 07:22:00;;;;;;;2.70;1.70;;;;;;;10.02;54.60;99814.72;5067631;28;20027;-70
2023/03/07 07:24:26;;;;;;;9.07;2.23;;;;;;;9.95;55.45;99814.03;5067488;28;20056;-70
2023/03/07 07:26:52;;;;;;;5.80;1.50;;;;;;;9.88;54.84;99820.28;5066232;28;20035;-69
2023/03/07 07:29:17;;;;;;;6.07;1.67;;;;;;;9.76;55.83;99824.03;5067739;28;20036;-70
2023/03/07 07:31:43;;;;;;;5.20;1.90;;;;;;;10.17;54.12;99819.56;5067409;28;20060;-70
2023/03/07 07:34:08;;;;;;;3.13;1.77;;;;;;;10.26;52.82;99826.34;5067627;28;20039;-70
2023/03/07 07:36:34;;;;;;;6.13;2.40;;;;;;;9.84;54.54;99829.09;5058593;28;20024;-71
2023/03/07 07:39:04;;;;;;;4.77;2.40;;;;;;;10.19;53.93;99835.22;5057565;28;20412;-70
2023/03/07 07:41:33;;;;;;;9.53;2.80;;;;;;;9.45;54.04;99845.59;5077041;28;20060;-70
2023/03/07 07:43:59;;;;;;;6.00;2.53;;;;;;;9.32;55.71;99844.97;5063433;28;20043;-69
2023/03/07 07:46:27;;;;;;;4.17;2.40;;;;;;;9.20;54.98;99850.44;5062913;28;20112;-70
2023/03/07 07:48:52;;;;;;;5.47;2.70;;;;;;;9.35;55.29;99844.03;5058563;28;20025;-70
2023/03/07 07:51:18;;;;;;;3.47;2.50;;;;;;;9.65;54.51;99850.34;5049064;28;20099;-70
2023/03/07 07:53:43;;;;;;;4.10;2.60;;;;;;;9.90;53.22;99852.41;5045765;28;20032;-69
2023/03/07 07:56:09;;;;;;;9.87;3.77;;;;;;;9.14;55.98;99856.63;5048206;28;20485;-71
2023/03/07 07:58:34;;;;;;;8.33;2.87;;;;;;;9.63;54.64;99849.53;5046652;28;20047;-70
2023/03/07 08:00:59;;;;;;;7.07;2.70;;;;;;;9.72;53.05;99842.41;5047749;28;20071;-70
2023/03/07 08:03:25;;;;;;;6.80;2.93;;;;;;;9.91;54.16;99851.53;5047384;28;20025;-69
2023/03/07 08:05:51;;;;;;;6.67;2.90;;;;;;;9.13;55.94;99856.66;5047137;28;20021;-70
2023/03/07 08:08:19;;;;;;;4.47;2.70;;;;;;;10.12;53.35;99857.16;5047327;28;20174;-70
2023/03/07 08:10:46;;;;;;;6.47;2.70;;;;;;;9.52;55.27;99856.75;5046597;28;20032;-69
2023/03/07 08:13:12;;;;;;;6.73;3.13;;;;;;;9.91;54.47;99856.75;5046609;28;20151;-69
2023/03/07 08:15:39;;;;;;;6.93;2.33;;;;;;;9.93;54.08;99849.75;5047107;28;20507;-69
2023/03/07 08:18:04;;;;;;;10.03;2.60;;;;;;;9.40;56.53;99862.22;5048111;28;20110;-70
2023/03/07 08:20:30;;;;;;;7.80;2.70;;;;;;;9.90;55.86;99857.63;5048119;28;20115;-69
2023/03/07 08:22:55;;;;;;;4.67;1.90;;;;;;;9.79;55.93;99851.81;5046930;28;20067;-69
2023/03/07 08:25:23;;;;;;;4.40;1.67;;;;;;;8.98;57.78;99861.28;5048611;28;20060;-70
2023/03/07 08:27:53;;;;;;;6.00;2.13;;;;;;;10.10;55.46;99848.50;5047111;28;20029;-70
2023/03/07 08:30:23;;;;;;;3.70;2.00;;;;;;;10.49;54.74;99843.22;5046911;28;20052;-70
2023/03/07 08:32:50;;;;;;;6.17;2.43;;;;;;;9.69;54.99;99843.31;5047812;28;20125;-69
2023/03/07 08:35:16;;;;;;;5.30;2.70;;;;;;;9.68;57.60;99847.69;5046200;28;20056;-69
2023/03/07 08:37:42;;;;;;;6.90;2.70;;;;;;;9.93;55.85;99841.94;5046675;28;20115;-69
2023/03/07 08:40:10;;;;;;;4.03;2.50;;;;;;;9.78;57.00;99837.91;5047907;28;20143;-70
2023/03/07 08:42:35;;;;;;;8.53;3.10;;;;;;;10.47;55.07;99834.56;5049639;28;20020;-70
2023/03/07 08:45:00;;;;;;;4.27;3.33;;;;;;;10.12;55.50;99836.25;5050387;28;20424;-69
2023/03/07 08:47:26;;;;;;;7.00;3.53;;;;;;;10.91;53.59;99837.75;5051855;28;20055;-69
2023/03/07 08:49:51;;;;;;;6.00;3.40;;;;;;;10.57;54.70;99833.44;5049044;28;20054;-70
2023/03/07 08:52:17;;;;;;;5.50;3.47;;;;;;;10.18;56.27;99836.13;5051827;28;20029;-69
2023/03/07 08:54:42;;;;;;;6.37;3.57;;;;;;;10.86;54.24;99837.03;5051606;28;20029;-70
2023/03/07 08:57:08;;;;;;;8.57;4.10;;;;;;;10.58;55.42;99829.94;5049498;28;20112;-70
2023/03/07 08:59:33;;;;;;;7.13;3.03;;;;;;;10.90;53.21;99830.81;5050127;28;20025;-70
2023/03/07 09:01:58;;;;;;;10.43;2.90;;;;;;;11.16;53.16;99826.63;5049743;28;20032;-70
2023/03/07 09:04:24;;;;;;;7.00;2.83;;;;;;;11.22;53.69;99823.81;5051901;28;20029;-69
2023/03/07 09:06:49;;;;;;;4.30;2.57;;;;;;;11.08;52.98;99829.44;5049637;28;20598;-69
2023/03/07 09:09:15;;;;;;;6.07;2.77;;;;;;;10.40;55.14;99835.59;5050800;28;20457;-69
2023/03/07 09:11:40;;;;;;;5.27;2.20;;;;;;;10.97;53.83;99839.34;5066583;28;20052;-70
2023/03/07 09:14:05;;;;;;;7.37;2.33;;;;;;;11.49;52.93;99834.41;5049806;28;20021;-70
2023/03/07 09:16:31;;;;;;;6.60;2.20;;;;;;;11.01;54.32;99839.22;5048930;28;20450;-69
2023/03/07 09:18:56;;;;;;;4.23;1.70;;;;;;;10.89;54.72;99844.78;5049801;28;20025;-69
2023/03/07 09:21:22;;;;;;;8.30;1.90;;;;;;;9.68;58.52;99847.69;5051498;28;20110;-69
2023/03/07 09:23:47;;;;;;;3.43;2.03;;;;;;;11.09;54.63;99846.84;5048359;28;20507;-69
2023/03/07 09:26:13;;;;;;;3.40;1.83;;;;;;;11.25;54.89;99844.69;5049887;28;20025;-70
2023/03/07 09:28:39;;;;;;;7.40;2.67;;;;;;;11.75;53.19;99840.63;5050934;28;20021;-69
2023/03/07 09:31:09;;;;;;;6.70;1.77;;;;;;;11.36;53.38;99850.44;5048515;28;20393;-69
2023/03/07 09:33:35;;;;;;;5.67;1.97;;;;;;;10.04;56.42;99848.63;5065987;28;20036;-69
2023/03/07 09:36:10;;;;;;;5.83;2.10;;;;;;;11.16;54.28;99843.16;5066211;28;20033;-69
2023/03/07 09:38:36;;;;;;;5.67;2.07;;;;;;;11.06;53.53;99848.69;5048622;28;20370;-69
2023/03/07 09:41:47;;;;;;;2.97;1.80;;;;;;;10.13;58.02;99845.81;5049528;28;20044;-69
2023/03/07 09:44:33;;;;;;;5.07;2.07;;;;;;;10.79;56.59;99843.31;5038039;28;20639;-69
2023/03/07 09:47:10;;;;;;;6.53;2.63;;;;;;;10.65;55.27;99844.53;5049205;28;20052;-69
2023/03/07 09:49:50;;;;;;;4.07;2.40;;;;;;;10.71;56.68;99845.28;5048911;28;20032;-69
2023/03/07 09:52:18;;;;;;;6.67;2.70;;;;;;;9.75;58.11;99843.19;5049912;28;20036;-70
2023/03/07 09:54:59;;;;;;;7.33;2.33;;;;;;;10.71;56.50;99846.13;5050638;28;20136;-70
2023/03/07 09:57:31;;;;;;;7.33;2.60;;;;;;;11.14;55.88;99839.75;5050770;28;20480;-69
2023/03/07 10:00:17;;;;;;;5.40;2.20;;;;;;;11.56;53.75;99830.69;5049833;28;20485;-69
2023/03/07 10:02:49;;;;;;;5.10;2.00;;;;;;;11.56;53.94;99833.31;5048849;28;20021;-69
2023/03/07 10:05:17;;;;;;;6.70;1.93;;;;;;;11.60;51.73;99829.69;5049146;28;20123;-69
2023/03/07 10:07:42;;;;;;;1.63;0.70;;;;;;;11.49;52.13;99837.00;5050175;28;20028;-69
2023/03/07 10:10:18;;;;;;;5.17;0.80;;;;;;;11.25;52.95;99842.06;5048826;28;20032;-69
2023/03/07 10:12:47;;;;;;;16.57;1.73;;;;;;;10.69;52.09;99845.31;5064775;28;20599;-70
2023/03/07 10:15:27;;;;;;;1.63;0.70;;;;;;;10.79;52.41;99838.09;5049214;28;20033;-69
2023/03/07 10:18:07;;;;;;;2.93;0.80;;;;;;;10.96;52.43;99838.50;5048544;28;20041;-69
2023/03/07 10:20:41;;;;;;;4.27;0.87;;;;;;;10.19;53.97;99848.25;5049260;28;20550;-69
2023/03/07 10:23:44;;;;;;;3.13;0.70;;;;;;;10.53;52.72;99839.63;5050235;28;20031;-69
2023/03/07 10:26:23;;;;;;;1.92;0.75;;;;;;;9.43;56.50;99846.50;5018423;28;20041;-69
2023/03/07 10:28:49;;;;;;;2.97;0.97;;;;;;;8.81;60.80;99863.34;5048022;28;20037;-69
2023/03/07 10:31:31;;;;;;;0.67;0.60;;;;;;;8.20;62.49;99855.66;5048629;28;20021;-69
2023/03/07 10:33:57;;;;;;;2.55;0.75;;;;;;;9.16;62.30;99864.41;5047826;28;20021;-69
2023/03/07 10:36:40;;;;;;;4.17;0.70;;;;;;;8.77;61.90;99862.53;5065314;28;20036;-69
2023/03/07 10:39:20;;;;;;;2.88;0.73;;;;;;;8.75;62.40;99863.44;5049696;28;20182;-68
2023/03/07 10:41:46;;;;;;;9.13;1.53;;;;;;;8.67;63.80;99868.81;5046892;28;20016;-68
2023/03/07 10:44:17;;;;;;;1.40;0.50;;;;;;;8.58;63.82;99864.59;5049833;28;20508;-69
2023/03/07 10:46:43;;;;;;;4.00;0.80;;;;;;;8.72;64.88;99868.72;5047866;28;20053;-69
2023/03/07 10:49:37;;;;;;;3.83;0.60;;;;;;;9.07;65.05;99867.22;5047478;28;20036;-69
2023/03/07 10:52:37;;;;;;;3.37;0.80;;;;;;;9.02;63.49;99866.44;5048413;28;20041;-69
2023/03/07 10:55:35;;;;;;;4.40;0.70;;;;;;;9.94;59.06;99864.50;5047612;28;20017;-70
2023/03/07 10:58:23;;;;;;;2.43;1.63;;;;;;;10.57;57.90;99864.78;5047979;28;20017;-69
2023/03/07 11:01:00;;;;;;;7.97;1.37;;;;;;;10.16;56.20;99864.84;5048623;28;20028;-69
2023/03/07 11:03:26;;;;;;;2.97;1.37;;;;;;;10.26;57.90;99873.34;5046639;28;20051;-68
2023/03/07 11:05:52;;;;;;;1.57;0.90;;;;;;;9.94;59.12;99863.66;5049034;28;20457;-69
2023/03/07 11:08:28;;;;;;;7.03;0.90;;;;;;;9.98;57.69;99860.94;5047922;28;20485;-69
2023/03/07 11:10:54;;;;;;;3.67;1.53;;;;;;;10.65;58.85;99873.28;5063228;28;20028;-69
2023/03/07 11:13:22;;;;;;;3.77;2.90;;;;;;;9.94;58.74;99866.28;5047961;28;20110;-70
2023/03/07 11:15:48;;;;;;;5.83;1.43;;;;;;;10.90;57.07;99866.56;5046247;28;20024;-69
2023/03/07 11:18:26;;;;;;;3.27;1.53;;;;;;;10.93;55.72;99867.31;5048130;28;20021;-69
2023/03/07 11:20:52;;;;;;;8.20;1.20;;;;;;;10.56;55.01;99863.06;5048499;28;20497;-70
2023/03/07 11:23:24;;;;;;;1.53;0.70;;;;;;;10.42;56.15;99870.41;5047079;28;20021;-70
2023/03/07 11:25:52;;;;;;;4.35;0.82;;;;;;;9.72;57.29;99871.09;5046827;28;20417;-69
2023/03/07 11:28:34;;;;;;;4.47;1.53;;;;;;;9.50;57.24;99874.16;5047983;28;20028;-69
2023/03/07 11:31:34;;;;;;;3.27;1.43;;;;;;;9.62;58.22;99867.84;5046724;28;20033;-69
2023/03/07 11:34:41;;;;;;;5.07;1.10;;;;;;;9.98;55.17;99875.75;5047564;28;20333;-69
2023/03/07 11:37:27;;;;;;;2.63;0.50;;;;;;;9.44;59.30;99879.53;5040274;28;20044;-70
2023/03/07 11:40:19;;;;;;;6.03;1.83;;;;;;;9.44;59.02;99882.97;5046884;28;20325;-70